Flight Track Log - Related Links

Times and Time Zones

All times are in EST time to prevent confusion due to time zone crossing. See the N45EJ flight status page for this flight to view local times or setup timezone preferences in your user account.

Time Position Orientation Groundspeed Altitude Reporting Facility
EST Latitude Longitude Course Direction KTS MPH feet Rate Location/Type
Sat 05:14:09 PM 40.8081 -111.9647 352° North 199 229 5,000  Level Salt Lake Center
Sat 05:15:04 PM 40.8683 -111.9753 352° North 251 289 7,700 2,779 Climbing Salt Lake Center
Sat 05:15:44 PM 40.9008 -111.9792 355° North 242 278 9,400 3,471 Climbing Salt Lake Center
Sat 05:16:46 PM 40.9453 -111.8969 54° Northeast 292 336 13,600 3,561 Climbing Salt Lake Center
Sat 05:17:47 PM 40.9428 -111.7861 92° East 311 358 16,700 2,732 Climbing Salt Lake Center
Sat 05:18:49 PM 40.9331 -111.6633 96° East 340 391 19,200 2,613 Climbing Salt Lake Center
Sat 05:19:51 PM 40.9656 -111.5425 70° East 353 406 22,100 2,976 Climbing Salt Lake Center
Sat 05:20:54 PM 41.0064 -111.3889 71° East 370 426 25,400 2,806 Climbing Salt Lake Center
Sat 05:21:55 PM 41.0403 -111.2567 71° East 380 437 27,900 2,195 Climbing Salt Lake Center
Sat 05:22:57 PM 41.0750 -111.1167 72° East 398 458 29,900 1,935 Climbing Salt Lake Center
Sat 05:23:59 PM 41.1122 -110.9725 71° East 411 473 31,900 1,887 Climbing Salt Lake Center
Sat 05:25:01 PM 41.1525 -110.8122 71° East 418 481 33,800 1,645 Climbing Salt Lake Center
Sat 05:26:03 PM 41.1881 -110.6694 72° East 425 489 35,300 1,463 Climbing Salt Lake Center
Sat 05:27:04 PM 41.2314 -110.5000 71° East 433 498 36,800 1,268 Climbing Salt Lake Center
Sat 05:28:06 PM 41.2667 -110.3536 72° East 436 502 37,900 1,790 Climbing Salt Lake Center
Sat 05:29:08 PM 41.3056 -110.1975 72° East 400 460 40,500 1,500 Climbing Salt Lake Center
Sat 05:30:10 PM 41.3381 -110.0683 71° East 387 445 41,000 242 Climbing Salt Lake Center
Sat 05:31:12 PM 41.3761 -109.9108 72° East 399 459 41,000  Level Salt Lake Center
Sat 05:32:14 PM 41.4111 -109.7672 72° East 420 483 41,000  Level Salt Lake Center
Sat 05:33:16 PM 41.4528 -109.5928 72° East 441 507 41,000  Level Salt Lake Center
Sat 05:34:18 PM 41.4911 -109.4383 72° East 453 521 41,000  Level Salt Lake Center
Sat 05:35:20 PM 41.5286 -109.2778 73° East 466 536 41,000  Level Salt Lake Center
Sat 05:36:22 PM 41.5739 -109.0856 72° East 475 547 41,000  Level Salt Lake Center
Sat 05:37:24 PM 41.6033 -108.9206 77° East 473 544 41,000  Level Salt Lake Center
Sat 05:38:25 PM 41.6219 -108.7550 81° East 470 541 41,000  Level Salt Lake Center
Sat 05:39:27 PM 41.6461 -108.5631 80° East 468 539 41,000  Level Salt Lake Center
Sat 05:40:29 PM 41.6661 -108.3967 81° East 472 543 41,000  Level Salt Lake Center
Sat 05:41:31 PM 41.6892 -108.1989 81° East 480 552 41,000  Level Salt Lake Center
Sat 05:42:33 PM 41.7103 -108.0272 81° East 485 558 41,000  Level Salt Lake Center
Sat 05:43:35 PM 41.7339 -107.8278 81° East 489 563 41,000  Level Salt Lake Center
Sat 05:44:34 PM 41.7522 -107.6531 82° East 489 563 41,000  Level Denver Center
Sat 05:45:36 PM 41.7722 -107.4789 81° East 494 568 41,000  Level Denver Center
Sat 05:46:38 PM 41.7950 -107.2767 81° East 494 568 41,000  Level Denver Center
Sat 05:47:40 PM 41.8139 -107.1025 82° East 494 568 41,000  Level Denver Center
Sat 05:48:42 PM 41.8353 -106.8992 82° East 496 571 41,000  Level Denver Center
Sat 05:49:44 PM 41.8539 -106.7253 82° East 493 567 41,000  Level Denver Center
Sat 05:50:46 PM 41.8753 -106.5217 82° East 494 568 41,000  Level Denver Center
Sat 05:51:48 PM 41.8925 -106.3494 82° East 499 574 41,000  Level Denver Center
Sat 05:52:50 PM 41.9136 -106.1458 82° East 494 568 41,000  Level Denver Center
Sat 05:53:52 PM 41.9294 -105.9706 83° East 494 568 41,000  Level Denver Center
Sat 05:55:06 PM 41.9506 -105.7656 82° East 498 573 41,000  Level Denver Center
Sat 05:56:08 PM 41.9700 -105.5636 83° East 491 565 41,000  Level Denver Center
Sat 05:57:10 PM 41.9892 -105.3581 83° East 498 573 41,000  Level Denver Center
Sat 05:58:12 PM 42.0047 -105.1825 83° East 497 572 41,000  Level Denver Center
Sat 05:59:14 PM 42.0228 -104.9831 83° East 487 560 41,000  Level Denver Center
Sat 06:00:17 PM 42.0375 -104.8106 83° East 487 560 41,000  Level Denver Center
Sat 06:01:19 PM 42.0556 -104.6083 83° East 491 565 41,000  Level Denver Center
Sat 06:02:21 PM 42.0697 -104.4336 84° East 493 567 41,000  Level Denver Center
Sat 06:03:23 PM 42.0861 -104.2358 84° East 482 555 41,000  Level Denver Center
Sat 06:04:25 PM 42.1006 -104.0664 83° East 479 551 41,000  Level Denver Center
Sat 06:05:27 PM 42.1164 -103.8672 84° East 481 554 41,000  Level Denver Center
Sat 06:06:29 PM 42.1303 -103.6969 84° East 481 554 41,000  Level Denver Center
Sat 06:07:31 PM 42.1456 -103.4975 84° East 482 555 41,000  Level Denver Center
Sat 06:08:33 PM 42.1586 -103.3250 84° East 484 557 41,000  Level Denver Center
Sat 06:09:35 PM 42.1733 -103.1200 84° East 492 566 41,000  Level Denver Center
Sat 06:10:37 PM 42.1844 -102.9450 85° East 490 564 41,000  Level Denver Center
Sat 06:11:39 PM 42.2006 -102.7392 84° East 495 570 41,000  Level Denver Center
Sat 06:12:41 PM 42.2128 -102.5628 85° East 495 570 41,000  Level Denver Center
Sat 06:13:43 PM 42.2256 -102.3567 85° East 494 568 41,000  Level Denver Center
Sat 06:14:45 PM 42.2369 -102.1839 85° East 494 568 41,000  Level Denver Center
Sat 06:15:47 PM 42.2511 -101.9775 85° East 494 568 41,000  Level Denver Center
Sat 06:16:48 PM 42.2619 -101.7997 85° East 495 570 41,000  Level Denver Center
Sat 06:17:50 PM 42.2742 -101.5908 85° East 498 573 41,000  Level Denver Center
Sat 06:18:52 PM 42.2853 -101.4106 85° East 500 575 41,000  Level Denver Center
Sat 06:19:54 PM 42.2947 -101.2325 86° East 499 574 41,000  Level Denver Center
Sat 06:20:56 PM 42.3053 -101.0239 86° East 498 573 41,000  Level Denver Center
Sat 06:21:58 PM 42.3161 -100.8458 85° East 496 571 41,000  Level Denver Center
Sat 06:23:00 PM 42.3250 -100.6694 86° East 492 566 41,000  Level Denver Center
Sat 06:24:02 PM 42.3358 -100.4628 86° East 494 568 41,000  Level Denver Center
Sat 06:24:43 PM 42.3425 -100.3275 86° East 494 568 41,000  Level Minneapolis Center
Sat 06:25:44 PM 42.3511 -100.1422 86° East 494 568 41,000  Level Minneapolis Center
Sat 06:26:45 PM 42.3583 -99.9553 87° East 495 570 41,000  Level Minneapolis Center
Sat 06:27:47 PM 42.3675 -99.7672 86° East 498 573 41,000  Level Minneapolis Center
Sat 06:28:48 PM 42.3758 -99.5783 87° East 499 574 41,000  Level Minneapolis Center
Sat 06:29:49 PM 42.3839 -99.3900 87° East 501 577 41,000  Level Minneapolis Center
Sat 06:30:50 PM 42.3908 -99.2019 87° East 500 575 41,000  Level Minneapolis Center
Sat 06:31:52 PM 42.3989 -99.0158 87° East 497 572 41,000  Level Minneapolis Center
Sat 06:32:53 PM 42.4047 -98.8300 88° East 494 568 41,000  Level Minneapolis Center
Sat 06:33:54 PM 42.4128 -98.6053 87° East 496 571 41,000  Level Minneapolis Center
Sat 06:34:56 PM 42.4175 -98.4167 88° East 498 573 41,000  Level Minneapolis Center
Sat 06:35:57 PM 42.4239 -98.2286 87° East 499 574 41,000  Level Minneapolis Center
Sat 06:36:59 PM 42.4297 -98.0419 88° East 497 572 41,000  Level Minneapolis Center
Sat 06:38:00 PM 42.4350 -97.8547 88° East 497 572 41,000  Level Minneapolis Center
Sat 06:39:02 PM 42.4392 -97.6689 88° East 494 568 41,000  Level Minneapolis Center
Sat 06:40:03 PM 42.4431 -97.4842 88° East 492 566 41,000  Level Minneapolis Center
Sat 06:41:05 PM 42.4483 -97.2989 88° East 491 565 41,000  Level Minneapolis Center
Sat 06:42:06 PM 42.4514 -97.1156 89° East 489 563 41,000  Level Minneapolis Center
Sat 06:43:08 PM 42.4558 -96.9317 88° East 489 563 41,000  Level Minneapolis Center
Sat 06:44:09 PM 42.4589 -96.7469 89° East 489 563 41,000  Level Minneapolis Center
Sat 06:45:11 PM 42.4617 -96.5247 89° East 490 564 41,000  Level Minneapolis Center
Sat 06:46:12 PM 42.4644 -96.3408 89° East 489 563 41,000  Level Minneapolis Center
Sat 06:47:14 PM 42.4667 -96.1536 89° East 492 566 41,000  Level Minneapolis Center
Sat 06:48:15 PM 42.4689 -95.9672 89° East 495 570 41,000  Level Minneapolis Center
Sat 06:49:17 PM 42.4708 -95.7800 89° East 495 570 41,000  Level Minneapolis Center
Sat 06:50:19 PM 42.4722 -95.5886 89° East 502 578 41,000  Level Minneapolis Center
Sat 06:51:20 PM 42.4725 -95.4025 90° East 496 571 41,000  Level Minneapolis Center
Sat 06:52:22 PM 42.4744 -95.2169 89° East 493 567 41,000  Level Minneapolis Center
Sat 06:53:24 PM 42.4747 -95.0308 90° East 494 568 41,000  Level Minneapolis Center
Sat 06:54:25 PM 42.4733 -94.8072 90° East 494 568 41,000  Level Minneapolis Center
Sat 06:55:27 PM 42.4739 -94.6217 90° East 493 567 41,000  Level Minneapolis Center
Sat 06:56:29 PM 42.4731 -94.4553 90° East 495 570 41,000  Level Minneapolis Center
Sat 06:57:30 PM 42.4714 -94.2489 91° East 495 570 41,000  Level Minneapolis Center
Sat 06:58:32 PM 42.4717 -94.0494 90° East 493 567 41,000  Level Minneapolis Center
Sat 06:59:34 PM 42.4694 -93.8642 91° East 496 571 41,000 -194 Level Minneapolis Center
Sat 07:00:36 PM 42.4675 -93.6800 91° East 495 570 40,600 -1,171 Descending Minneapolis Center
Sat 07:01:37 PM 42.4653 -93.4989 91° East 488 562 38,600 -1,756 Descending Minneapolis Center
Sat 07:02:39 PM 42.4644 -93.3225 90° East 476 548 37,000 -780 Descending Minneapolis Center
Sat 07:03:40 PM 42.4631 -93.1419 91° East 482 555 37,000 -109 Level Minneapolis Center
Sat 07:04:29 PM 42.4597 -92.9939 92° East 488 562 36,800 -1,243 Descending Chicago Center
Sat 07:05:31 PM 42.4553 -92.7786 92° East 482 555 34,700 -1,854 Descending Chicago Center
Sat 07:06:32 PM 42.4531 -92.6000 91° East 480 552 33,000 -1,171 Descending Chicago Center
Sat 07:07:34 PM 42.4492 -92.4194 92° East 485 558 32,300 -823 Descending Chicago Center
Sat 07:08:36 PM 42.4450 -92.2383 92° East 487 560 31,300 -976 Descending Chicago Center
Sat 07:09:37 PM 42.4406 -92.0614 92° East 478 550 30,300 -1,073 Descending Chicago Center
Sat 07:10:39 PM 42.4367 -91.8483 91° East 479 551 29,100 -1,065 Descending Chicago Center
Sat 07:11:41 PM 42.4314 -91.6728 92° East 477 549 28,100 -976 Descending Chicago Center
Sat 07:12:42 PM 42.4272 -91.4978 92° East 476 548 27,100 -976 Descending Chicago Center
Sat 07:13:44 PM 42.4219 -91.3225 92° East 473 544 26,100 -968 Descending Chicago Center
Sat 07:14:46 PM 42.4158 -91.1475 93° East 473 544 25,100 -1,065 Descending Chicago Center
Sat 07:15:48 PM 42.4086 -90.9392 93° East 469 540 23,900 -1,073 Descending Chicago Center
Sat 07:16:49 PM 42.4044 -90.7650 92° East 468 539 22,900 -1,073 Descending Chicago Center
Sat 07:17:51 PM 42.3911 -90.5917 96° East 469 540 21,700 -1,694 Descending Chicago Center
Sat 07:18:53 PM 42.3717 -90.4247 99° East 463 533 19,400 -2,341 Descending Chicago Center
Sat 07:19:54 PM 42.3531 -90.2594 99° East 456 525 16,900 -2,439 Descending Chicago Center
Sat 07:20:56 PM 42.3292 -90.0667 99° East 444 511 14,400 -1,839 Descending Chicago Center
Sat 07:21:58 PM 42.3100 -89.9075 99° East 429 494 13,100 -1,220 Descending Chicago Center
Sat 07:22:59 PM 42.2936 -89.7653 99° East 389 448 11,900 -1,317 Descending Chicago Center
Sat 07:24:01 PM 42.2778 -89.6381 100° East 351 404 10,400 -1,210 Descending Chicago Center
Sat 07:25:03 PM 42.2636 -89.5169 99° East 333 383 9,400 -968 Descending Chicago Center
Sat 07:26:05 PM 42.2503 -89.4042 99° East 314 361 8,400 -976 Descending Chicago Center
Sat 07:27:06 PM 42.2369 -89.2886 99° East 312 359 7,400 -1,073 Descending Chicago Center
Sat 07:28:08 PM 42.2353 -89.1514 91° East 321 369 6,200 -1,113 Descending Chicago Center
Sat 07:29:10 PM 42.2608 -89.0406 73° East 314 361 5,100 -581 Descending Chicago Center
Sat 07:30:12 PM 42.2839 -88.9267 75° East 314 361 5,000 -49 Descending Chicago Center
Sat 07:31:13 PM 42.3050 -88.8169 75° East 310 357 5,000  Level Chicago Center
Sat 07:32:15 PM 42.3289 -88.7119 73° East 304 350 5,000  Level Chicago Center
Sat 07:33:17 PM 42.3317 -88.5936 88° East 317 365 5,000 -146 Level Chicago Center
Sat 07:34:18 PM 42.3233 -88.4814 96° East 308 354 4,700 -439 Descending Chicago Center
Sat 07:35:20 PM 42.3169 -88.3425 94° East 308 354 4,100 -339 Descending Chicago Center
Sat 07:36:22 PM 42.3122 -88.2292 93° East 307 353 4,000 -48 Descending Chicago Center
Sat 07:37:24 PM 42.3078 -88.1136 93° East 307 353 4,000 -341 Level Chicago Center
Sat 07:38:25 PM 42.3042 -88.0036 93° East 302 348 3,300 -732 Descending Chicago Center
Sat 07:39:27 PM 42.2575 -87.9631 147° Southeast 244 281 2,500 -435 Descending Chicago Center
Sat 07:40:29 PM 42.2175 -87.9506 167° South 187 215 2,400 -244 Descending Chicago Center
Sat 07:41:30 PM 42.1839 -87.9403 167° South 130 150 2,000 -293 Descending Chicago Center
Sat 07:42:32 PM 42.1589 -87.9303 163° South 120 138 1,800 -194 Descending Chicago Center

Login

Don't have an account? Register now (free) for customized features, flight alerts, and more!